Lawson Army Air Field (Fort Benning)
KLSF : now visible

Airfield :











YOU CAN JOIN US ON...

 
LOGIN :

Register | Disclaimer

   EN    FR    IT 

 









Legend :    VFR   Marginal VFR   IFR   Intensive IFR   Very Intensive IFR
Visi :
Ceiling :
>= 8 km
>= 3000ft
5 to 8 km
1000 to 3000 ft
1500m to 5 km
500 to 1000 ft
800 to 1500m
200 to 500 ft
< 800m
< 200 ft
Symbols :   Thunderstorms  Fog  Heavy snow  Heavy precipitations  Wind > 20 kt






- Airport Elevation : 232 ft


KLSF - Lawson Army Air Field (Fort Benning)

CURRENT METAR :
  • 081956Z AUTO 09011KT 10SM BKN035 OVC043 18/09 A3015 RMK AO2 SLP215 T01800091

EXPIRED METARs :
  • 081901Z AUTO 07006KT 10SM BKN037 BKN055 17/08 A3017 RMK AO2 SLP222
  • 081856Z AUTO 08010KT 10SM SCT037 BKN055 18/08 A3017 RMK AO2 SLP221 T01750084
  • 081831Z AUTO 09009KT 10SM OVC055 17/09 A3019 RMK AO2 PRESFR SLP228
  • 081806Z AUTO 09005KT 10SM OVC050 16/08 A3023 RMK AO2 SLP242
  • 081756Z AUTO 06007KT 10SM OVC055 16/08 A3023 RMK AO2 SLP242 T01600077 10163 20114 57021
  • 081721Z AUTO 07011KT 10SM BKN055 OVC090 16/08 A3024 RMK AO2 SLP246

TAF TAF KLSF
Valid from the 08 at 17:00 until the 09 at 23:00 UTC


081700Z 0817/0923 09010G15KT 9999 BKN040 QNH3016INS
BECMG 0822/0823 09009KT 9999 SCT010 BKN020 QNH3015INS
BECMG 0900/0901 12009KT 9999 BKN010 510103 QNH3012INS
BECMG 0908/0909 18010KT 9000 -RA OVC005 510103 QNH3005INS
BECMG 0914/0915 19010KT 4800 BR OVC005 510103 QNH2997INS
BECMG 0919/0920 20010G15KT 9999 NSW BKN015 QNH2996INS TX19/0917Z TN13/0905Z



MET'MAP, your aeronautical weather chart ! - Copyright ORBIFLY December 2007 - Disclaimer

ORBIFLY MET'MAP TEAM :

Programming & Development : Alexandra Zaïnal
Concept & original design : Baudouin d'Aumeries
Assistance for programming : Marc-Olivier Méhu
Technical & hardware support : Manuel Goepfert

Contact : metmap@orbifly.com




SOURCES & CREDITS :

   NOAA       Earth
Advisory